Time;durP1;ratioP1;P1;durP2;ratioP2;P2;SDS_P1;SDS_P2;PMS_P1;PMS_P2;Temp;Humidity;BMP_temperature;BMP_pressure;BME280_temperature;BME280_humidity;BME280_pressure;Samples;Min_cycle;Max_cycle;Signal;HPM_P1;HPM_P2
2022/04/22 00:05:45;;;;;;;5.15;3.50;;;;;;;22.84;41.08;99733.13;20352262;28;97232;-78
2022/04/22 00:15:46;;;;;;;4.30;2.92;;;;;;;22.82;40.98;99724.50;20345559;28;98459;-79
2022/04/22 00:25:46;;;;;;;3.38;2.92;;;;;;;22.78;40.90;99715.22;20355258;28;101350;-79
2022/04/22 00:35:47;;;;;;;4.15;2.90;;;;;;;22.80;40.92;99706.19;20357233;28;97819;-79
2022/04/22 00:45:48;;;;;;;4.32;3.30;;;;;;;22.78;40.85;99696.75;20357795;28;98336;-79
2022/04/22 00:55:50;;;;;;;4.60;3.53;;;;;;;22.74;40.84;99690.06;20344518;28;97973;-79
2022/04/22 01:16:12;;;;;;;4.63;3.10;;;;;;;22.69;41.04;99664.13;20355576;28;100150;-79
2022/04/22 01:26:14;;;;;;;4.68;3.30;;;;;;;22.68;41.14;99655.38;20348808;28;97447;-79
2022/04/22 01:36:16;;;;;;;4.10;2.97;;;;;;;22.65;41.35;99642.47;20358400;28;98497;-80
2022/04/22 01:46:17;;;;;;;3.67;2.90;;;;;;;22.65;41.03;99633.75;20376396;28;98529;-79
2022/04/22 01:56:18;;;;;;;3.40;3.10;;;;;;;22.64;41.51;99609.16;20360018;28;98576;-78
2022/04/22 02:06:19;;;;;;;3.47;2.80;;;;;;;22.62;41.45;99587.38;20363918;28;101465;-78
2022/04/22 02:16:20;;;;;;;3.72;3.10;;;;;;;22.60;41.29;99599.06;20360755;28;100728;-78
2022/04/22 02:26:20;;;;;;;4.13;3.30;;;;;;;22.54;41.10;99587.28;20368308;28;100065;-80
2022/04/22 02:36:20;;;;;;;4.68;3.17;;;;;;;22.54;41.25;99605.72;20368803;28;98081;-79
2022/04/22 02:46:22;;;;;;;3.70;3.20;;;;;;;22.53;41.51;99578.53;20375158;28;101032;-79
2022/04/22 02:56:23;;;;;;;4.38;3.05;;;;;;;22.53;41.56;99573.25;20374482;28;98604;-79
2022/04/22 03:06:26;;;;;;;3.72;3.08;;;;;;;22.53;41.50;99559.22;20383459;28;97909;-79
2022/04/22 03:16:28;;;;;;;5.60;3.17;;;;;;;22.51;41.46;99566.47;20367098;28;99518;-78
2022/04/22 03:26:28;;;;;;;3.17;2.77;;;;;;;22.49;41.29;99544.69;20367963;28;100322;-78
2022/04/22 03:36:30;;;;;;;3.73;3.23;;;;;;;22.46;41.49;99537.03;20359778;28;96962;-79
2022/04/22 03:46:31;;;;;;;4.40;3.40;;;;;;;22.44;41.31;99541.66;20361867;28;99969;-79
2022/04/22 04:06:51;;;;;;;5.93;3.20;;;;;;;22.42;41.56;99544.41;20363856;28;98354;-80
2022/04/22 04:16:51;;;;;;;4.40;2.92;;;;;;;22.46;42.32;99529.13;20345758;28;97358;-79
2022/04/22 04:26:53;;;;;;;6.75;3.30;;;;;;;22.48;42.44;99543.81;20358978;28;97679;-79
2022/04/22 04:36:54;;;;;;;11.07;3.83;;;;;;;22.50;43.79;99554.25;20347716;28;97425;-77
2022/04/22 04:46:54;;;;;;;16.90;4.90;;;;;;;22.53;43.97;99554.78;20352820;28;99920;-79
2022/04/22 04:56:55;;;;;;;15.02;6.10;;;;;;;22.48;41.04;99545.66;20347635;28;100962;-78
2022/04/22 05:06:56;;;;;;;18.52;7.72;;;;;;;21.72;34.48;99545.66;20360960;28;100329;-79
2022/04/22 05:16:57;;;;;;;16.15;6.78;;;;;;;22.07;36.16;99565.25;20375696;28;98677;-83
2022/04/22 05:26:59;;;;;;;14.15;6.55;;;;;;;22.12;36.88;99575.34;20391290;28;98088;-79
2022/04/22 05:36:59;;;;;;;23.85;7.15;;;;;;;22.14;38.02;99575.22;20385241;28;97795;-80
2022/04/22 05:47:03;;;;;;;13.63;5.68;;;;;;;22.20;39.17;99550.88;20389348;28;97335;-79
2022/04/22 05:57:04;;;;;;;14.65;5.30;;;;;;;22.22;40.00;99554.22;20406882;28;100666;-80
2022/04/22 06:07:05;;;;;;;10.07;5.20;;;;;;;22.25;40.70;99535.44;20400486;28;98040;-80
2022/04/22 06:17:06;;;;;;;8.18;5.28;;;;;;;22.30;41.26;99543.78;20399960;28;97174;-80
2022/04/22 06:27:09;;;;;;;8.23;5.22;;;;;;;22.30;41.51;99535.03;20393660;28;97106;-81
2022/04/22 06:37:11;;;;;;;;;;;;;;;22.30;41.95;99527.97;20394403;28;97855;-80
2022/04/22 06:47:12;;;;;;;9.32;4.90;;;;;;;22.35;41.52;99519.56;20472146;28;97629;-80
2022/04/22 06:57:13;;;;;;;9.32;5.10;;;;;;;22.35;41.75;99506.38;20470586;28;99431;-81
2022/04/22 07:07:13;;;;;;;8.82;4.80;;;;;;;22.36;41.53;99510.69;20449756;28;96939;-80
2022/04/22 07:17:14;;;;;;;6.53;4.50;;;;;;;22.38;41.87;99509.59;20446878;28;100569;-80
2022/04/22 07:27:16;;;;;;;6.72;4.32;;;;;;;22.42;42.20;99528.59;20442720;28;99721;-79
2022/04/22 07:37:17;;;;;;;5.77;4.33;;;;;;;22.41;42.00;99526.09;20446989;28;97299;-79
2022/04/22 07:47:19;;;;;;;9.70;4.72;;;;;;;22.40;42.16;99522.66;20464772;28;97603;-80
2022/04/22 07:57:21;;;;;;;8.37;4.90;;;;;;;22.42;42.34;99507.50;20473585;28;97348;-79
2022/04/22 08:07:22;;;;;;;8.40;4.60;;;;;;;22.42;42.10;99515.41;20455051;28;97663;-80
2022/04/22 08:17:27;;;;;;;6.82;4.60;;;;;;;22.42;42.03;99496.94;20462489;28;97685;-79
2022/04/22 08:27:28;;;;;;;6.72;4.45;;;;;;;22.45;42.10;99491.38;20425206;28;98875;-78
2022/04/22 08:37:29;;;;;;;8.25;4.43;;;;;;;22.50;42.08;99483.84;20432633;28;97364;-77
2022/04/22 08:57:49;;;;;;;6.90;4.38;;;;;;;22.63;42.30;99467.66;20449042;28;98732;-75
2022/04/22 09:07:51;;;;;;;7.07;4.72;;;;;;;22.69;42.08;99468.84;20455749;28;97514;-76
2022/04/22 09:17:57;;;;;;;6.63;4.03;;;;;;;22.75;41.94;99435.75;20438762;28;96996;-75
2022/04/22 09:28:16;;;;;;;5.45;4.20;;;;;;;22.79;41.60;99424.75;20444934;28;96892;-76
2022/04/22 09:48:44;;;;;;;4.70;3.92;;;;;;;22.84;41.42;99398.72;20456077;28;97740;-75
2022/04/22 09:58:45;;;;;;;4.30;3.47;;;;;;;22.88;41.62;99401.88;20463256;28;96954;-76
2022/04/22 10:08:50;;;;;;;5.78;3.80;;;;;;;22.90;41.68;99420.19;20464918;28;99398;-75
2022/04/22 10:18:51;;;;;;;4.45;3.55;;;;;;;22.91;41.88;99406.84;20441379;28;96961;-76
2022/04/22 10:28:53;;;;;;;4.68;3.80;;;;;;;22.93;41.61;99375.84;20453436;28;99238;-77
2022/04/22 10:38:53;;;;;;;5.35;3.83;;;;;;;22.88;41.74;99372.03;20462638;28;99740;-77
2022/04/22 10:49:11;;;;;;;5.88;3.72;;;;;;;22.84;41.90;99372.31;20438555;28;98649;-76
2022/04/22 10:59:15;;;;;;;6.40;3.80;;;;;;;22.86;42.13;99345.75;20457393;28;100205;-76
2022/04/22 11:09:30;;;;;;;12.32;7.15;;;;;;;22.87;43.10;99342.13;20441049;28;98323;-76
2022/04/22 11:19:33;;;;;;;14.30;6.65;;;;;;;22.88;43.10;99332.44;20449836;28;97443;-76
2022/04/22 11:29:34;;;;;;;13.75;6.93;;;;;;;22.88;43.32;99327.97;20431721;28;98366;-77
2022/04/22 11:39:35;;;;;;;13.73;6.43;;;;;;;22.89;43.23;99316.41;20444931;28;98365;-76
2022/04/22 11:49:38;;;;;;;7.20;5.15;;;;;;;22.92;43.20;99302.09;20445929;28;98229;-75
2022/04/22 11:59:39;;;;;;;12.95;6.47;;;;;;;22.88;43.05;99306.03;20434242;28;98964;-76
2022/04/22 12:09:40;;;;;;;10.95;6.03;;;;;;;22.86;41.50;99285.06;20425193;28;101095;-77
2022/04/22 12:19:41;;;;;;;7.75;5.35;;;;;;;22.78;39.24;99267.38;20442131;28;97530;-77
2022/04/22 12:29:42;;;;;;;11.80;5.60;;;;;;;22.68;37.69;99256.91;20437702;28;99601;-75
2022/04/22 12:39:44;;;;;;;9.43;5.07;;;;;;;22.75;39.63;99243.91;20447099;28;97855;-76
2022/04/22 13:00:18;;;;;;;8.55;4.60;;;;;;;22.86;40.17;99217.28;20434239;28;97913;-77
2022/04/22 13:10:22;;;;;;;13.20;5.10;;;;;;;22.93;40.42;99221.91;20465476;28;97541;-73
2022/04/22 13:20:22;;;;;;;11.30;4.95;;;;;;;22.97;40.36;99208.25;20424063;28;97703;-75
2022/04/22 13:30:23;;;;;;;10.68;4.93;;;;;;;23.01;39.97;99187.63;20461854;28;97857;-76
2022/04/22 13:40:24;;;;;;;11.45;5.10;;;;;;;23.03;40.26;99194.41;20446863;28;97738;-76
2022/04/22 14:00:43;;;;;;;12.40;5.10;;;;;;;23.11;40.41;99187.50;20447943;28;97525;-77
2022/04/22 14:10:44;;;;;;;15.40;5.00;;;;;;;23.14;40.69;99181.88;20440899;28;100348;-75
2022/04/22 14:20:44;;;;;;;12.75;5.50;;;;;;;23.16;41.40;99170.19;20440085;28;96890;-76
2022/04/22 14:30:45;;;;;;;12.27;4.82;;;;;;;23.18;41.07;99175.34;20438440;28;98930;-76
2022/04/22 14:40:45;;;;;;;12.32;4.80;;;;;;;23.17;41.21;99156.00;20453913;28;97194;-73
2022/04/22 14:50:46;;;;;;;11.20;4.35;;;;;;;23.19;41.09;99163.75;20459365;28;97106;-78
2022/04/22 15:00:46;;;;;;;6.75;4.00;;;;;;;23.21;41.33;99138.03;20438084;28;100390;-76
2022/04/22 15:10:47;;;;;;;12.88;4.53;;;;;;;23.21;40.21;99124.00;20398407;28;97534;-77
2022/04/22 15:31:17;;;;;;;10.80;4.15;;;;;;;23.17;39.50;99102.38;20419975;28;100329;-76
2022/04/22 15:41:20;;;;;;;7.60;4.13;;;;;;;23.17;40.24;99107.66;20446628;28;98345;-74
2022/04/22 15:51:21;;;;;;;8.52;4.05;;;;;;;23.17;39.96;99095.28;20444496;28;98847;-76
2022/04/22 16:01:22;;;;;;;6.40;4.22;;;;;;;23.17;40.72;99102.38;20432918;28;97984;-75
2022/04/22 16:21:41;;;;;;;4.57;3.40;;;;;;;23.20;40.92;99115.25;20423466;28;97549;-75
2022/04/22 16:31:42;;;;;;;8.13;3.47;;;;;;;23.20;41.05;99133.72;20428117;28;98265;-74
2022/04/22 16:41:42;;;;;;;6.13;3.67;;;;;;;23.23;41.47;99099.09;20434879;28;99152;-74
2022/04/22 16:51:43;;;;;;;9.48;3.72;;;;;;;23.23;42.32;99112.28;20444864;28;96924;-74
2022/04/22 17:01:44;;;;;;;16.05;4.60;;;;;;;23.26;43.05;99113.78;20412266;28;101809;-77
2022/04/22 17:11:45;;;;;;;11.57;4.53;;;;;;;23.27;42.90;99108.31;20403726;28;98561;-78
2022/04/22 17:32:04;;;;;;;8.93;4.10;;;;;;;23.28;43.34;99091.50;20452206;28;97633;-78
2022/04/22 17:42:05;;;;;;;8.77;3.88;;;;;;;23.33;43.69;99083.06;20435352;28;99181;-77
2022/04/22 17:52:06;;;;;;;19.70;11.73;;;;;;;23.36;45.43;99125.00;20435723;28;99338;-78
2022/04/22 18:02:08;;;;;;;30.63;22.83;;;;;;;23.38;46.25;99212.84;20435233;28;98977;-78
2022/04/22 18:12:09;;;;;;;30.98;23.67;;;;;;;23.39;45.77;99243.56;20467816;28;97617;-78
2022/04/22 18:22:10;;;;;;;29.02;20.67;;;;;;;23.41;45.55;99203.75;20451018;28;98210;-78
2022/04/22 18:32:11;;;;;;;48.60;19.50;;;;;;;23.40;45.76;99218.78;20446828;28;99552;-78
2022/04/22 18:42:12;;;;;;;25.90;18.38;;;;;;;23.40;45.58;99188.91;20406268;28;99879;-78
2022/04/22 18:52:13;;;;;;;23.00;15.88;;;;;;;23.37;45.32;99179.47;20424340;28;99039;-79
2022/04/22 19:02:16;;;;;;;22.42;15.48;;;;;;;23.39;45.22;99172.22;20435208;28;99420;-78
2022/04/22 19:12:17;;;;;;;20.13;12.77;;;;;;;23.26;44.06;99163.94;20389203;28;99703;-77
2022/04/22 19:22:17;;;;;;;14.20;11.25;;;;;;;23.26;44.12;99159.47;20394845;28;100404;-79
2022/04/22 19:32:19;;;;;;;17.33;11.10;;;;;;;23.23;44.42;99148.41;20426879;28;97002;-78
2022/04/22 19:42:20;;;;;;;12.77;10.33;;;;;;;23.18;44.18;99135.72;20443168;28;97523;-76
2022/04/22 19:52:21;;;;;;;14.98;10.40;;;;;;;23.12;44.69;99168.84;20427316;28;98688;-79
2022/04/22 20:02:21;;;;;;;13.02;9.57;;;;;;;23.09;44.84;99182.34;20425212;28;97751;-78
2022/04/22 20:12:21;;;;;;;12.65;9.60;;;;;;;23.07;44.90;99187.00;20431249;28;99192;-79
2022/04/22 20:22:22;;;;;;;14.27;9.25;;;;;;;23.01;44.68;99171.78;20427820;28;98951;-79
2022/04/22 20:32:22;;;;;;;14.00;9.30;;;;;;;22.96;45.04;99161.72;20429205;28;97849;-79
2022/04/22 20:42:23;;;;;;;12.57;8.52;;;;;;;22.93;45.06;99175.22;20434892;28;97102;-78
2022/04/22 20:52:23;;;;;;;9.70;8.13;;;;;;;22.92;45.06;99148.97;20427437;28;97093;-78
2022/04/22 21:02:26;;;;;;;10.57;7.47;;;;;;;22.88;45.45;99171.41;20419193;28;98368;-79
2022/04/22 21:12:26;;;;;;;9.93;7.63;;;;;;;22.88;45.24;99185.44;20428124;28;97709;-78
2022/04/22 21:22:27;;;;;;;8.20;7.32;;;;;;;22.86;45.33;99200.59;20432991;28;97808;-77
2022/04/22 21:32:27;;;;;;;8.95;6.70;;;;;;;22.81;45.18;99197.59;20438794;28;98106;-80
2022/04/22 21:42:28;;;;;;;9.45;7.15;;;;;;;22.79;45.35;99184.56;20454023;28;97892;-79
2022/04/22 21:52:28;;;;;;;7.38;6.47;;;;;;;22.77;45.20;99180.44;20440206;28;97017;-79
2022/04/22 22:02:29;;;;;;;7.93;6.68;;;;;;;22.75;45.47;99177.13;20452818;28;97232;-76
2022/04/22 22:12:30;;;;;;;7.07;6.18;;;;;;;22.73;45.19;99165.91;20450271;28;100364;-77
2022/04/22 22:22:30;;;;;;;6.90;5.85;;;;;;;22.67;45.23;99167.38;20453285;28;97035;-80
2022/04/22 22:32:31;;;;;;;6.78;5.90;;;;;;;22.67;45.36;99157.63;20447392;28;97650;-78
2022/04/22 22:42:32;;;;;;;6.55;5.80;;;;;;;22.66;45.39;99150.69;20450366;28;98286;-79
2022/04/22 22:52:34;;;;;;;7.15;5.78;;;;;;;22.64;45.19;99147.41;20443245;28;97197;-77
2022/04/22 23:02:34;;;;;;;7.40;5.40;;;;;;;22.63;45.24;99151.03;20446922;28;97702;-78
2022/04/22 23:12:36;;;;;;;6.05;5.45;;;;;;;22.59;45.26;99154.13;20447820;28;98503;-79
2022/04/22 23:22:36;;;;;;;6.35;5.13;;;;;;;22.57;45.09;99156.09;20438740;28;98307;-79
2022/04/22 23:32:37;;;;;;;7.57;5.03;;;;;;;22.55;45.14;99154.44;20444505;28;97531;-79
2022/04/22 23:42:38;;;;;;;5.88;4.80;;;;;;;22.53;45.18;99142.41;20435048;28;100429;-78
2022/04/22 23:52:38;;;;;;;6.72;5.20;;;;;;;22.51;45.19;99149.66;20446040;28;98625;-78
